Tasman — ZDKI2 — position and weather

sailwx.info

Track history (hours):
 
Tides and Currents Weather Stations Pressure Air Temp Water Temp Dewpoint Dewpoint Depression Visibility Wind Speed Wind Dir Waves Ship Positions

Tasman

Last reported at 2014-Aug-26 05:12 UTC. Time now 2014-Aug-27 13:12 UTC.
Position N 57°47' E 010°16'.

Length 90 m; draft 4 m.

Type: Ship. MMSI: 23617000.

Date/timePositionNaut miles runAvg speedWind from/ knotsBaromVisibWave heightAir tempDewpointWater temp
2014-Aug-26 05:12N 57°47' E 010°16'711.5
2014-Aug-26 04:33N 57°48' E 010°30'1110.9
2014-Aug-26 03:33N 57°46' E 010°51'1110.9
2014-Aug-26 02:33N 57°41' E 011°08'1111.2
2014-Aug-26 01:33N 57°37' E 011°28'7 5.9
2014-Aug-26 00:24N 57°36' E 011°40'0 0.0
2014-Aug-25 23:32N 57°36' E 011°40'0 0.0
2014-Aug-25 22:29N 57°36' E 011°40'0 0.0
2014-Aug-25 21:28N 57°36' E 011°40'3 3.5
2014-Aug-25 20:34N 57°33' E 011°39'1111.4
2014-Aug-25 19:33N 57°21' E 011°39'1110.5
2014-Aug-25 18:32N 57°10' E 011°40'6210.3
2014-Aug-25 12:32N 56°09' E 011°54'13 9.0
2014-Aug-25 11:06N 55°57' E 011°50'  
2014-Aug-21 19:29N 55°56' E 011°50'7712.8
2014-Aug-21 13:32N 57°12' E 011°35'1413.8
2014-Aug-21 12:32N 57°25' E 011°26'1313.0
2014-Aug-21 11:33N 57°34' E 011°10'1313.3
2014-Aug-21 10:33N 57°43' E 010°52'1312.8
2014-Aug-21 09:33N 57°45' E 010°28'1614.1
2014-Aug-21 08:25N 57°40' E 009°59'1213.8
2014-Aug-21 07:32N 57°33' E 009°40'12011.9
2014-Aug-20 21:30N 55°56' E 007°32'1111.9
2014-Aug-20 20:33N 55°46' E 007°27'1211.6
2014-Aug-20 19:33N 55°34' E 007°23'1110.9
2014-Aug-20 18:33N 55°28' E 007°39'1110.9
2014-Aug-20 17:33N 55°25' E 007°57'1110.9
2014-Aug-20 16:33N 55°26' E 008°16'7 7.1
2014-Aug-20 15:33N 55°27' E 008°28'0 0.0
2014-Aug-20 14:19N 55°27' E 008°28'0 0.0
2014-Aug-20 13:31N 55°27' E 008°28'0 0.0
2014-Aug-20 12:33N 55°27' E 008°28'0 0.0
2014-Aug-20 11:33N 55°27' E 008°28'0 0.0
2014-Aug-20 10:29N 55°27' E 008°28'0 0.0
2014-Aug-20 09:32N 55°27' E 008°28'0 0.0
2014-Aug-20 08:32N 55°27' E 008°28'0 0.0
2014-Aug-20 07:07N 55°27' E 008°28'0 0.0
2014-Aug-20 06:28N 55°27' E 008°28'0 0.0
2014-Aug-20 05:21N 55°27' E 008°28'0 0.0
2014-Aug-20 04:30N 55°27' E 008°28'0 0.0
2014-Aug-20 03:26N 55°27' E 008°28'0 0.0
2014-Aug-20 02:32N 55°27' E 008°28'0 0.0
2014-Aug-20 01:32N 55°27' E 008°28'0 0.0
2014-Aug-20 00:07N 55°27' E 008°28'0 0.0
2014-Aug-19 23:16N 55°27' E 008°28'0 0.0
2014-Aug-19 22:27N 55°27' E 008°28'0 0.0
2014-Aug-19 21:33N 55°27' E 008°28'0 0.0
2014-Aug-19 20:29N 55°27' E 008°28'0 0.0
2014-Aug-19 19:32N 55°27' E 008°28'0 0.0
2014-Aug-19 18:29N 55°27' E 008°28'0 0.0
2014-Aug-19 17:22N 55°27' E 008°28'0 0.0
2014-Aug-19 16:28N 55°27' E 008°28'0 0.0
2014-Aug-19 15:27N 55°27' E 008°28'0 0.0
2014-Aug-19 14:33N 55°27' E 008°28'4 3.9
2014-Aug-19 13:33N 55°29' E 008°23'9 9.3
2014-Aug-19 12:34N 55°23' E 008°10'1311.4
2014-Aug-19 11:26N 55°16' E 007°51'1010.3
2014-Aug-19 10:27N 55°08' E 007°41'1011.7
2014-Aug-19 09:33N 55°01' E 007°26'1211.9
2014-Aug-19 08:33N 54°55' E 007°08'1510.5
2014-Aug-19 07:10N 54°42' E 006°57'6610.1
2014-Aug-19 00:33N 53°59' E 005°31'1010.1
2014-Aug-18 23:33N 53°51' E 005°19'1010.4
2014-Aug-18 22:33N 53°44' E 005°06'1211.9
2014-Aug-18 21:33N 53°36' E 004°51'1212.0
2014-Aug-18 20:33N 53°25' E 004°43'1211.8
2014-Aug-18 19:33N 53°15' E 004°34'1211.8
2014-Aug-18 18:33N 53°04' E 004°26'1111.1
2014-Aug-18 17:33N 52°54' E 004°17'1110.8
2014-Aug-18 16:34N 52°46' E 004°06'10 9.8
2014-Aug-18 15:33N 52°39' E 003°55'8 7.6
2014-Aug-18 14:30N 52°33' E 003°47'52 4.5
2014-Aug-18 03:04N 51°54' E 002°50'510.7
2014-Aug-18 02:33N 51°50' E 002°45'1110.7
2014-Aug-18 01:32N 51°41' E 002°33'1010.6
2014-Aug-18 00:33N 51°33' E 002°23'84 9.2
2014-Aug-17 15:31N 50°30' E 000°57'2311.2
2014-Aug-17 13:30N 50°23' E 000°23'  
Track history (hours):
 
Tides and Currents Weather Stations Pressure Air Temp Water Temp Dewpoint Dewpoint Depression Visibility Wind Speed Wind Dir Waves Ship Positions

Tasman

Last reported at 2014-Aug-26 05:12 UTC. Time now 2014-Aug-27 13:12 UTC.
Position N 57°47' E 010°16'.

Length 90 m; draft 4 m.

Type: Ship. MMSI: 23617000.

Date/timePositionNaut miles runAvg speedWind from/ knotsBaromVisibWave heightAir tempDewpointWater temp
2014-Aug-26 05:12N 57°47' E 010°16'711.5
2014-Aug-26 04:33N 57°48' E 010°30'1110.9
2014-Aug-26 03:33N 57°46' E 010°51'1110.9
2014-Aug-26 02:33N 57°41' E 011°08'1111.2
2014-Aug-26 01:33N 57°37' E 011°28'7 5.9
2014-Aug-26 00:24N 57°36' E 011°40'0 0.0
2014-Aug-25 23:32N 57°36' E 011°40'0 0.0
2014-Aug-25 22:29N 57°36' E 011°40'0 0.0
2014-Aug-25 21:28N 57°36' E 011°40'3 3.5
2014-Aug-25 20:34N 57°33' E 011°39'1111.4
2014-Aug-25 19:33N 57°21' E 011°39'1110.5
2014-Aug-25 18:32N 57°10' E 011°40'6210.3
2014-Aug-25 12:32N 56°09' E 011°54'13 9.0
2014-Aug-25 11:06N 55°57' E 011°50'  
2014-Aug-21 19:29N 55°56' E 011°50'7712.8
2014-Aug-21 13:32N 57°12' E 011°35'1413.8
2014-Aug-21 12:32N 57°25' E 011°26'1313.0
2014-Aug-21 11:33N 57°34' E 011°10'1313.3
2014-Aug-21 10:33N 57°43' E 010°52'1312.8
2014-Aug-21 09:33N 57°45' E 010°28'1614.1
2014-Aug-21 08:25N 57°40' E 009°59'1213.8
2014-Aug-21 07:32N 57°33' E 009°40'12011.9
2014-Aug-20 21:30N 55°56' E 007°32'1111.9
2014-Aug-20 20:33N 55°46' E 007°27'1211.6
2014-Aug-20 19:33N 55°34' E 007°23'1110.9
2014-Aug-20 18:33N 55°28' E 007°39'1110.9
2014-Aug-20 17:33N 55°25' E 007°57'1110.9
2014-Aug-20 16:33N 55°26' E 008°16'7 7.1
2014-Aug-20 15:33N 55°27' E 008°28'0 0.0
2014-Aug-20 14:19N 55°27' E 008°28'0 0.0
2014-Aug-20 13:31N 55°27' E 008°28'0 0.0
2014-Aug-20 12:33N 55°27' E 008°28'0 0.0
2014-Aug-20 11:33N 55°27' E 008°28'0 0.0
2014-Aug-20 10:29N 55°27' E 008°28'0 0.0
2014-Aug-20 09:32N 55°27' E 008°28'0 0.0
2014-Aug-20 08:32N 55°27' E 008°28'0 0.0
2014-Aug-20 07:07N 55°27' E 008°28'0 0.0
2014-Aug-20 06:28N 55°27' E 008°28'0 0.0
2014-Aug-20 05:21N 55°27' E 008°28'0 0.0
2014-Aug-20 04:30N 55°27' E 008°28'0 0.0
2014-Aug-20 03:26N 55°27' E 008°28'0 0.0
2014-Aug-20 02:32N 55°27' E 008°28'0 0.0
2014-Aug-20 01:32N 55°27' E 008°28'0 0.0
2014-Aug-20 00:07N 55°27' E 008°28'0 0.0
2014-Aug-19 23:16N 55°27' E 008°28'0 0.0
2014-Aug-19 22:27N 55°27' E 008°28'0 0.0
2014-Aug-19 21:33N 55°27' E 008°28'0 0.0
2014-Aug-19 20:29N 55°27' E 008°28'0 0.0
2014-Aug-19 19:32N 55°27' E 008°28'0 0.0
2014-Aug-19 18:29N 55°27' E 008°28'0 0.0
2014-Aug-19 17:22N 55°27' E 008°28'0 0.0
2014-Aug-19 16:28N 55°27' E 008°28'0 0.0
2014-Aug-19 15:27N 55°27' E 008°28'0 0.0
2014-Aug-19 14:33N 55°27' E 008°28'4 3.9
2014-Aug-19 13:33N 55°29' E 008°23'9 9.3
2014-Aug-19 12:34N 55°23' E 008°10'1311.4
2014-Aug-19 11:26N 55°16' E 007°51'1010.3
2014-Aug-19 10:27N 55°08' E 007°41'1011.7
2014-Aug-19 09:33N 55°01' E 007°26'1211.9
2014-Aug-19 08:33N 54°55' E 007°08'1510.5
2014-Aug-19 07:10N 54°42' E 006°57'6610.1
2014-Aug-19 00:33N 53°59' E 005°31'1010.1
2014-Aug-18 23:33N 53°51' E 005°19'1010.4
2014-Aug-18 22:33N 53°44' E 005°06'1211.9
2014-Aug-18 21:33N 53°36' E 004°51'1212.0
2014-Aug-18 20:33N 53°25' E 004°43'1211.8
2014-Aug-18 19:33N 53°15' E 004°34'1211.8
2014-Aug-18 18:33N 53°04' E 004°26'1111.1
2014-Aug-18 17:33N 52°54' E 004°17'1110.8
2014-Aug-18 16:34N 52°46' E 004°06'10 9.8
2014-Aug-18 15:33N 52°39' E 003°55'8 7.6
2014-Aug-18 14:30N 52°33' E 003°47'52 4.5
2014-Aug-18 03:04N 51°54' E 002°50'510.7
2014-Aug-18 02:33N 51°50' E 002°45'1110.7
2014-Aug-18 01:32N 51°41' E 002°33'1010.6
2014-Aug-18 00:33N 51°33' E 002°23'84 9.2
2014-Aug-17 15:31N 50°30' E 000°57'2311.2
2014-Aug-17 13:30N 50°23' E 000°23'  

Dump ship's entire track history